Time;durP1;ratioP1;P1;durP2;ratioP2;P2;SDS_P1;SDS_P2;PMS_P1;PMS_P2;Temp;Humidity;BMP_temperature;BMP_pressure;BME280_temperature;BME280_humidity;BME280_pressure;Samples;Min_cycle;Max_cycle;Signal;HPM_P1;HPM_P2
2023/06/28 00:02:19;;;;;;;4.88;1.75;;;17.50;99.90;;;;;;5066947;28;20197;-61
2023/06/28 00:04:45;;;;;;;7.07;1.90;;;17.50;99.90;;;;;;5068929;28;20029;-61
2023/06/28 00:07:11;;;;;;;4.03;1.90;;;17.50;99.90;;;;;;5068235;28;20036;-61
2023/06/28 00:09:37;;;;;;;4.13;1.73;;;17.40;99.90;;;;;;5062129;28;20028;-61
2023/06/28 00:12:03;;;;;;;3.95;1.50;;;17.50;99.90;;;;;;5069031;28;20036;-60
2023/06/28 00:14:29;;;;;;;5.95;1.92;;;17.60;99.90;;;;;;5068844;28;20536;-61
2023/06/28 00:16:54;;;;;;;7.47;2.03;;;17.50;99.90;;;;;;5068350;28;20028;-61
2023/06/28 00:19:26;;;;;;;4.60;1.55;;;17.50;99.90;;;;;;5060130;28;20508;-61
2023/06/28 00:21:53;;;;;;;5.43;1.98;;;17.40;99.90;;;;;;5069291;28;20540;-61
2023/06/28 00:24:19;;;;;;;6.53;1.83;;;17.40;99.90;;;;;;5068454;28;20025;-61
2023/06/28 00:26:44;;;;;;;5.78;1.90;;;17.20;99.90;;;;;;5068535;28;20657;-61
2023/06/28 00:29:10;;;;;;;5.18;1.88;;;17.30;99.90;;;;;;5067494;28;20028;-62
2023/06/28 00:31:36;;;;;;;7.68;2.20;;;17.30;99.90;;;;;;5068502;28;20028;-61
2023/06/28 00:34:01;;;;;;;4.35;1.73;;;17.20;99.90;;;;;;5068461;28;20040;-58
2023/06/28 00:36:27;;;;;;;7.20;2.15;;;17.30;99.90;;;;;;5068454;28;20082;-61
2023/06/28 00:38:52;;;;;;;4.85;1.60;;;17.20;99.90;;;;;;5068535;28;20036;-61
2023/06/28 00:41:19;;;;;;;6.47;1.95;;;17.20;99.90;;;;;;5067479;28;20048;-61
2023/06/28 00:43:44;;;;;;;4.55;1.83;;;17.20;99.90;;;;;;5068310;28;20031;-61
2023/06/28 00:46:10;;;;;;;4.70;1.88;;;17.20;99.90;;;;;;5067857;28;20043;-61
2023/06/28 00:48:36;;;;;;;6.43;2.03;;;17.20;99.90;;;;;;5068702;28;20052;-61
2023/06/28 00:51:03;;;;;;;4.28;1.85;;;17.20;99.90;;;;;;5067937;28;20064;-60
2023/06/28 00:53:30;;;;;;;6.38;2.08;;;17.20;99.90;;;;;;5067484;28;20107;-61
2023/06/28 00:55:56;;;;;;;6.10;2.00;;;17.10;99.90;;;;;;5067902;28;20169;-61
2023/06/28 00:58:22;;;;;;;6.45;2.17;;;17.20;99.90;;;;;;5067980;28;20045;-61
2023/06/28 01:00:47;;;;;;;5.75;2.28;;;17.10;99.90;;;;;;5068179;28;20035;-61
2023/06/28 01:03:17;;;;;;;5.35;2.03;;;17.20;99.90;;;;;;5067060;28;20831;-61
2023/06/28 01:05:45;;;;;;;4.90;2.15;;;17.10;99.90;;;;;;5067724;28;20467;-61
2023/06/28 01:08:12;;;;;;;3.97;1.65;;;17.00;99.90;;;;;;5067271;28;20033;-61
2023/06/28 01:10:37;;;;;;;4.90;1.90;;;17.10;99.90;;;;;;5067965;28;20461;-61
2023/06/28 01:13:04;;;;;;;6.80;1.73;;;17.00;99.90;;;;;;5066311;28;20063;-61
2023/06/28 01:15:29;;;;;;;6.05;1.95;;;17.00;99.90;;;;;;5053857;28;20028;-61
2023/06/28 01:17:55;;;;;;;4.07;1.95;;;17.00;99.90;;;;;;5067965;28;20468;-61
2023/06/28 01:20:20;;;;;;;5.82;2.30;;;16.90;99.90;;;;;;5067120;28;20637;-61
2023/06/28 01:22:56;;;;;;;6.57;2.00;;;17.00;99.90;;;;;;5067706;28;20400;-61
2023/06/28 01:25:22;;;;;;;5.15;2.00;;;17.00;99.90;;;;;;5066067;28;20408;-61
2023/06/28 01:27:48;;;;;;;6.95;2.00;;;17.00;99.90;;;;;;5067684;28;20542;-61
2023/06/28 01:30:17;;;;;;;3.72;1.83;;;16.90;99.90;;;;;;5067008;28;20044;-61
2023/06/28 01:32:43;;;;;;;6.22;2.15;;;16.90;99.90;;;;;;5067323;28;20036;-61
2023/06/28 01:35:10;;;;;;;6.25;2.20;;;16.90;99.90;;;;;;5066358;28;20496;-61
2023/06/28 01:37:37;;;;;;;9.45;1.92;;;16.80;99.90;;;;;;5067393;28;20093;-61
2023/06/28 01:40:04;;;;;;;6.38;1.90;;;16.80;99.90;;;;;;5067109;28;20063;-60
2023/06/28 01:42:31;;;;;;;7.18;2.00;;;16.70;99.90;;;;;;5066813;28;20033;-61
2023/06/28 01:44:56;;;;;;;5.50;1.90;;;16.70;99.90;;;;;;5066309;28;20032;-61
2023/06/28 01:47:22;;;;;;;5.07;1.85;;;16.60;99.90;;;;;;5066641;28;20044;-61
2023/06/28 01:49:48;;;;;;;3.28;1.75;;;16.60;99.90;;;;;;5067563;28;20156;-61
2023/06/28 01:52:13;;;;;;;7.57;1.80;;;16.50;99.90;;;;;;5068627;28;20025;-61
2023/06/28 01:54:39;;;;;;;10.57;2.30;;;16.50;99.90;;;;;;5067819;28;20326;-61
2023/06/28 01:57:05;;;;;;;5.30;1.92;;;16.40;99.90;;;;;;5066926;28;20025;-60
2023/06/28 01:59:31;;;;;;;8.55;2.10;;;16.50;99.90;;;;;;5064537;28;20039;-61
2023/06/28 02:01:57;;;;;;;5.25;2.13;;;16.50;99.90;;;;;;5066894;28;20032;-61
2023/06/28 02:04:23;;;;;;;6.93;2.33;;;16.40;99.90;;;;;;5066299;28;20052;-61
2023/06/28 02:06:48;;;;;;;6.88;2.17;;;16.40;99.90;;;;;;5066879;28;20048;-61
2023/06/28 02:09:14;;;;;;;5.22;2.13;;;16.30;99.90;;;;;;5065665;28;20458;-60
2023/06/28 02:11:39;;;;;;;6.05;2.10;;;16.30;99.90;;;;;;5067026;28;20029;-61
2023/06/28 02:14:05;;;;;;;4.13;2.20;;;16.30;99.90;;;;;;5066286;28;20032;-61
2023/06/28 02:16:31;;;;;;;3.35;2.00;;;16.30;99.90;;;;;;5067316;28;20032;-60
2023/06/28 02:18:57;;;;;;;5.22;2.30;;;16.40;99.90;;;;;;5066435;28;20120;-61
2023/06/28 02:21:23;;;;;;;5.63;2.53;;;16.30;99.90;;;;;;5047734;28;20437;-61
2023/06/28 02:23:49;;;;;;;7.75;2.30;;;16.40;99.90;;;;;;5046884;28;20045;-60
2023/06/28 02:26:14;;;;;;;6.95;2.25;;;16.30;99.90;;;;;;5046069;28;20029;-60
2023/06/28 02:28:40;;;;;;;4.93;1.95;;;16.30;99.90;;;;;;5065734;28;20037;-61
2023/06/28 02:31:06;;;;;;;5.78;2.17;;;16.30;99.90;;;;;;5063763;28;20043;-60
2023/06/28 02:33:32;;;;;;;5.78;2.13;;;16.20;99.90;;;;;;5066144;28;20041;-61
2023/06/28 02:35:57;;;;;;;6.50;1.90;;;16.30;99.90;;;;;;5066314;28;20029;-61
2023/06/28 02:38:23;;;;;;;5.35;2.00;;;16.30;99.90;;;;;;5066290;28;20043;-61
2023/06/28 02:40:48;;;;;;;7.10;2.55;;;16.30;99.90;;;;;;5065981;28;20449;-61
2023/06/28 02:43:14;;;;;;;4.32;1.98;;;16.30;99.90;;;;;;5064746;28;20036;-61
2023/06/28 02:45:39;;;;;;;6.38;2.08;;;16.30;99.90;;;;;;5065509;28;20602;-62
2023/06/28 02:48:05;;;;;;;8.48;2.10;;;16.30;99.90;;;;;;5065966;28;20412;-61
2023/06/28 02:50:30;;;;;;;4.45;2.10;;;16.30;99.90;;;;;;5066692;28;20119;-61
2023/06/28 02:52:56;;;;;;;4.95;2.10;;;16.30;99.90;;;;;;5065086;28;20039;-61
2023/06/28 02:55:22;;;;;;;6.13;2.63;;;16.30;99.90;;;;;;5065202;28;20502;-62
2023/06/28 02:57:47;;;;;;;4.00;2.53;;;16.30;99.90;;;;;;5065908;28;20514;-61
2023/06/28 03:00:13;;;;;;;4.68;1.80;;;16.30;99.90;;;;;;5063700;28;20151;-61
2023/06/28 03:02:39;;;;;;;4.97;2.10;;;16.40;99.90;;;;;;5066058;28;20039;-61
2023/06/28 03:05:04;;;;;;;4.10;2.10;;;16.30;99.90;;;;;;5064366;28;20508;-61
2023/06/28 03:07:30;;;;;;;5.53;2.00;;;16.30;99.90;;;;;;5066299;28;20036;-62
2023/06/28 03:09:56;;;;;;;4.90;2.30;;;16.30;99.90;;;;;;5066073;28;20646;-61
2023/06/28 03:12:21;;;;;;;5.25;2.15;;;16.40;99.90;;;;;;5065633;28;20028;-61
2023/06/28 03:14:47;;;;;;;5.40;1.92;;;16.50;99.90;;;;;;5065094;28;20032;-61
2023/06/28 03:17:13;;;;;;;6.15;2.35;;;16.50;99.90;;;;;;5066844;28;20033;-61
2023/06/28 03:19:39;;;;;;;4.93;2.30;;;16.50;99.90;;;;;;5065894;28;20098;-61
2023/06/28 03:22:04;;;;;;;5.45;2.55;;;16.50;99.90;;;;;;5065199;28;20530;-61
2023/06/28 03:24:30;;;;;;;5.65;2.58;;;16.50;99.90;;;;;;5066179;28;20499;-61
2023/06/28 03:26:55;;;;;;;4.70;2.35;;;16.60;99.90;;;;;;5065490;28;20676;-61
2023/06/28 03:29:21;;;;;;;6.25;2.75;;;16.70;99.90;;;;;;5065113;28;20115;-61
2023/06/28 03:31:46;;;;;;;5.55;2.13;;;16.70;99.90;;;;;;5066021;28;20040;-61
2023/06/28 03:34:13;;;;;;;6.10;2.50;;;16.70;99.90;;;;;;5064202;28;20064;-61
2023/06/28 03:36:39;;;;;;;10.75;2.65;;;16.70;99.90;;;;;;5061366;28;20033;-61
2023/06/28 03:39:04;;;;;;;6.35;2.60;;;16.80;99.90;;;;;;5044073;28;20040;-60
2023/06/28 03:41:30;;;;;;;5.28;2.50;;;16.90;99.90;;;;;;5080765;28;20082;-61
2023/06/28 03:43:55;;;;;;;5.47;2.60;;;16.80;99.90;;;;;;5065574;28;20041;-61
2023/06/28 03:46:21;;;;;;;6.28;2.63;;;16.90;99.90;;;;;;5066057;28;20041;-61
2023/06/28 03:48:46;;;;;;;7.97;2.78;;;17.00;99.90;;;;;;5064446;28;20104;-61
2023/06/28 03:51:12;;;;;;;7.05;2.80;;;16.90;99.90;;;;;;5065237;28;20458;-61
2023/06/28 03:53:38;;;;;;;5.70;2.72;;;16.90;99.90;;;;;;5065663;28;20036;-61
2023/06/28 03:56:03;;;;;;;7.30;2.78;;;16.80;99.90;;;;;;5064862;28;20071;-61
2023/06/28 03:58:29;;;;;;;6.32;2.47;;;16.90;99.90;;;;;;5064758;28;20054;-62
2023/06/28 04:00:54;;;;;;;9.50;3.28;;;17.10;99.90;;;;;;5065346;28;20504;-61
2023/06/28 04:03:20;;;;;;;6.38;2.97;;;17.10;99.90;;;;;;5065077;28;20060;-61
2023/06/28 04:05:46;;;;;;;6.07;2.90;;;17.10;99.90;;;;;;5067646;28;20072;-61
2023/06/28 04:08:12;;;;;;;8.05;2.65;;;17.10;99.90;;;;;;5068579;28;20037;-61
2023/06/28 04:10:40;;;;;;;5.15;2.63;;;17.10;99.90;;;;;;5068061;28;20024;-61
2023/06/28 04:13:06;;;;;;;9.65;2.92;;;17.00;99.90;;;;;;5067541;28;20465;-61
2023/06/28 04:15:32;;;;;;;7.95;3.10;;;17.20;99.90;;;;;;5070425;28;20056;-61
2023/06/28 04:17:57;;;;;;;6.00;3.08;;;17.20;99.90;;;;;;5069005;28;20093;-61
2023/06/28 04:20:24;;;;;;;5.35;2.83;;;;;;;;;;5066119;28;20044;-61
2023/06/28 04:22:49;;;;;;;7.82;3.00;;;17.20;99.90;;;;;;5069480;28;20029;-62
2023/06/28 04:25:15;;;;;;;8.38;3.20;;;17.10;99.90;;;;;;5068017;28;20081;-62
2023/06/28 04:27:40;;;;;;;11.07;3.20;;;17.20;99.90;;;;;;5069021;28;20101;-61
2023/06/28 04:30:06;;;;;;;7.43;3.30;;;17.20;99.90;;;;;;5068226;28;20040;-61
2023/06/28 04:32:32;;;;;;;7.28;3.15;;;17.30;99.90;;;;;;5068068;28;20040;-62
2023/06/28 04:34:59;;;;;;;7.13;3.05;;;17.30;99.90;;;;;;5068247;28;20063;-61
2023/06/28 04:37:27;;;;;;;6.93;2.90;;;17.30;99.90;;;;;;5067910;28;20082;-62
2023/06/28 04:39:57;;;;;;;7.53;3.10;;;17.40;99.90;;;;;;5068784;28;20032;-62
2023/06/28 04:42:22;;;;;;;6.03;3.03;;;17.50;99.90;;;;;;5067564;28;20029;-62
2023/06/28 04:44:48;;;;;;;6.22;2.50;;;17.40;99.90;;;;;;5068151;28;20032;-61
2023/06/28 04:47:17;;;;;;;7.32;3.20;;;17.30;99.90;;;;;;5067861;28;20032;-61
2023/06/28 04:49:47;;;;;;;10.57;3.08;;;17.40;99.90;;;;;;5068576;28;20493;-62
2023/06/28 04:52:13;;;;;;;6.47;2.88;;;17.40;99.90;;;;;;5067067;28;20032;-63
2023/06/28 04:54:40;;;;;;;6.47;2.53;;;17.40;99.90;;;;;;5048355;28;20032;-62
2023/06/28 04:57:06;;;;;;;9.07;3.20;;;17.40;99.90;;;;;;5064671;28;20020;-61
2023/06/28 04:59:31;;;;;;;5.07;2.40;;;17.30;99.90;;;;;;5068127;28;20032;-62
2023/06/28 05:01:58;;;;;;;6.03;2.80;;;17.30;99.90;;;;;;5068063;28;20032;-62
2023/06/28 05:04:24;;;;;;;10.27;3.22;;;17.20;99.90;;;;;;5057315;28;20029;-62
2023/06/28 05:06:51;;;;;;;5.85;2.95;;;17.10;99.90;;;;;;5047802;28;20434;-62
2023/06/28 05:09:17;;;;;;;10.55;3.20;;;17.10;99.90;;;;;;5053165;28;20537;-61
2023/06/28 05:11:43;;;;;;;7.78;2.90;;;17.40;99.90;;;;;;5048227;28;20374;-62
2023/06/28 05:14:09;;;;;;;9.90;4.10;;;17.40;99.90;;;;;;5047618;28;20032;-62
2023/06/28 05:16:34;;;;;;;8.82;3.50;;;17.50;99.90;;;;;;5061387;28;20112;-62
2023/06/28 05:19:00;;;;;;;10.55;3.13;;;17.60;99.90;;;;;;5067780;28;20127;-63
2023/06/28 05:21:25;;;;;;;7.70;3.50;;;17.60;99.90;;;;;;5067893;28;20062;-62
2023/06/28 05:23:51;;;;;;;8.18;3.20;;;17.70;99.90;;;;;;5068138;28;20621;-62
2023/06/28 05:26:16;;;;;;;12.35;3.30;;;17.70;99.90;;;;;;5065785;28;20033;-62
2023/06/28 05:28:42;;;;;;;8.55;3.50;;;17.60;99.90;;;;;;5067363;28;20115;-63
2023/06/28 05:31:07;;;;;;;9.25;3.40;;;17.70;99.90;;;;;;5067123;28;20040;-62
2023/06/28 05:33:33;;;;;;;8.10;2.95;;;17.70;99.90;;;;;;5067750;28;20029;-62
2023/06/28 05:35:59;;;;;;;5.95;3.10;;;17.90;99.90;;;;;;5067426;28;20029;-64
2023/06/28 05:38:24;;;;;;;5.85;3.28;;;17.70;99.90;;;;;;5051620;28;20029;-63
2023/06/28 05:40:54;;;;;;;6.85;3.17;;;17.60;99.90;;;;;;5067397;28;20028;-63
2023/06/28 05:43:21;;;;;;;7.53;3.13;;;17.40;99.90;;;;;;5066681;28;20635;-62
2023/06/28 05:45:46;;;;;;;7.13;2.97;;;17.40;99.90;;;;;;5067431;28;20218;-63
2023/06/28 05:48:12;;;;;;;7.00;3.00;;;17.60;99.90;;;;;;5058288;28;20546;-63
2023/06/28 05:50:38;;;;;;;7.57;3.03;;;17.50;99.90;;;;;;5059651;28;20388;-63
2023/06/28 05:53:03;;;;;;;7.68;2.95;;;17.40;99.90;;;;;;5066371;28;20116;-62
2023/06/28 05:55:29;;;;;;;7.25;2.83;;;17.30;99.90;;;;;;5066676;28;20035;-63
2023/06/28 05:57:54;;;;;;;6.30;2.90;;;17.50;99.90;;;;;;5067024;28;20032;-63
2023/06/28 06:00:20;;;;;;;5.28;2.30;;;17.30;99.90;;;;;;5049343;28;20091;-56
2023/06/28 06:02:46;;;;;;;9.20;2.80;;;17.20;99.90;;;;;;5067232;28;20037;-56
2023/06/28 06:05:15;;;;;;;7.95;2.50;;;17.40;99.90;;;;;;5064866;28;20033;-56
2023/06/28 06:07:40;;;;;;;7.13;2.25;;;17.30;99.90;;;;;;5067265;28;20094;-55
2023/06/28 06:10:07;;;;;;;4.30;2.10;;;17.30;99.90;;;;;;5058518;28;20041;-55
2023/06/28 06:12:33;;;;;;;5.97;2.53;;;17.40;99.90;;;;;;5047052;28;20672;-56
2023/06/28 06:14:59;;;;;;;8.80;2.97;;;17.50;99.90;;;;;;5046450;28;20043;-55
2023/06/28 06:17:24;;;;;;;6.38;2.35;;;17.80;99.90;;;;;;5066022;28;20043;-56
2023/06/28 06:19:50;;;;;;;7.15;2.75;;;18.10;99.90;;;;;;5066921;28;20025;-55
2023/06/28 06:22:16;;;;;;;6.55;2.92;;;18.00;99.90;;;;;;5065871;28;20036;-56
2023/06/28 06:24:41;;;;;;;9.13;2.85;;;17.70;99.90;;;;;;5066226;28;20032;-57
2023/06/28 06:27:08;;;;;;;5.63;3.00;;;17.60;99.90;;;;;;5066045;28;20055;-56
2023/06/28 06:29:33;;;;;;;7.70;2.40;;;17.40;99.90;;;;;;5066428;28;20024;-55
2023/06/28 06:31:59;;;;;;;10.52;3.50;;;17.40;99.90;;;;;;5065880;28;20382;-56
2023/06/28 06:34:25;;;;;;;6.75;2.65;;;17.50;99.90;;;;;;5066231;28;20036;-56
2023/06/28 06:36:51;;;;;;;4.93;2.63;;;17.40;99.90;;;;;;5066058;28;20033;-56
2023/06/28 06:39:17;;;;;;;5.20;2.47;;;17.40;99.90;;;;;;5065951;28;20120;-57
2023/06/28 06:41:42;;;;;;;6.18;2.70;;;17.60;99.90;;;;;;5066393;28;20033;-56
2023/06/28 06:44:08;;;;;;;9.43;2.60;;;17.70;99.90;;;;;;5065305;28;20532;-56
2023/06/28 06:46:33;;;;;;;5.28;2.60;;;17.90;99.90;;;;;;5067441;28;20032;-57
2023/06/28 06:48:59;;;;;;;13.15;3.47;;;17.80;99.90;;;;;;5066248;28;20498;-56
2023/06/28 06:51:24;;;;;;;9.00;3.22;;;17.80;99.90;;;;;;5065780;28;20489;-56
2023/06/28 06:53:50;;;;;;;10.25;3.17;;;18.00;99.90;;;;;;5060538;28;20067;-56
2023/06/28 06:56:22;;;;;;;6.72;3.13;;;18.20;99.90;;;;;;5055131;28;20032;-56
2023/06/28 06:58:48;;;;;;;9.85;3.83;;;18.30;99.90;;;;;;5066492;28;20025;-56
2023/06/28 07:01:14;;;;;;;7.50;3.20;;;17.90;99.90;;;;;;5064369;28;20036;-55
2023/06/28 07:03:40;;;;;;;7.03;2.95;;;17.90;99.90;;;;;;5066174;28;20123;-56
2023/06/28 07:06:06;;;;;;;10.32;3.25;;;18.00;99.90;;;;;;5064423;28;20029;-56
2023/06/28 07:08:31;;;;;;;7.82;3.72;;;17.90;99.90;;;;;;5065735;28;20440;-55
2023/06/28 07:10:57;;;;;;;6.05;3.10;;;17.90;99.90;;;;;;5065878;28;20024;-56
2023/06/28 07:13:22;;;;;;;7.95;3.17;;;17.90;99.90;;;;;;5065710;28;20032;-56
2023/06/28 07:15:48;;;;;;;9.50;3.30;;;18.20;99.90;;;;;;5059994;28;20124;-57
2023/06/28 07:18:15;;;;;;;8.35;3.30;;;18.10;99.90;;;;;;5058931;28;20041;-56
2023/06/28 07:20:40;;;;;;;10.05;3.03;;;18.10;99.90;;;;;;5065329;28;20036;-56
2023/06/28 07:23:06;;;;;;;9.95;3.40;;;18.10;99.90;;;;;;5065407;28;20040;-56
2023/06/28 07:25:32;;;;;;;7.28;3.17;;;17.90;99.90;;;;;;5065598;28;20028;-56
2023/06/28 07:27:58;;;;;;;7.35;2.95;;;17.90;99.90;;;;;;5065193;28;20112;-55
2023/06/28 07:30:24;;;;;;;8.10;3.17;;;18.00;99.90;;;;;;5065468;28;20040;-55
2023/06/28 07:32:49;;;;;;;8.57;3.10;;;18.10;99.90;;;;;;5065568;28;20044;-56
2023/06/28 07:35:15;;;;;;;9.38;2.83;;;18.20;99.90;;;;;;5065015;28;20041;-55
2023/06/28 07:37:40;;;;;;;9.80;3.20;;;18.30;99.90;;;;;;5061461;28;20029;-56
2023/06/28 07:40:06;;;;;;;9.30;3.50;;;18.40;99.90;;;;;;5063646;28;20392;-56
2023/06/28 07:42:32;;;;;;;8.40;3.88;;;18.50;99.90;;;;;;5069962;28;20040;-56
2023/06/28 07:44:58;;;;;;;11.60;4.50;;;18.50;99.90;;;;;;5069461;28;20044;-56
2023/06/28 07:47:24;;;;;;;9.57;3.75;;;18.50;99.90;;;;;;5069943;28;20047;-56
2023/06/28 07:49:49;;;;;;;11.38;3.60;;;18.70;99.90;;;;;;5060000;28;20116;-56
2023/06/28 07:52:15;;;;;;;6.20;2.90;;;18.80;99.90;;;;;;5068451;28;20032;-56
2023/06/28 07:54:40;;;;;;;9.35;2.90;;;18.90;99.90;;;;;;5069050;28;20119;-56
2023/06/28 07:57:09;;;;;;;8.15;2.67;;;18.90;99.90;;;;;;5068941;28;20028;-56
2023/06/28 07:59:34;;;;;;;7.72;2.88;;;18.80;99.90;;;;;;5066086;28;20516;-56
2023/06/28 08:02:00;;;;;;;7.63;2.63;;;18.80;99.90;;;;;;5063989;28;20037;-56
2023/06/28 08:04:25;;;;;;;6.82;2.30;;;18.90;99.90;;;;;;5068517;28;20497;-56
2023/06/28 08:06:51;;;;;;;5.53;2.38;;;18.70;99.90;;;;;;5068712;28;20411;-56
2023/06/28 08:09:16;;;;;;;7.47;2.78;;;18.50;99.90;;;;;;5068481;28;20047;-56
2023/06/28 08:11:42;;;;;;;6.25;2.70;;;18.60;99.90;;;;;;5056763;28;20374;-56
2023/06/28 08:14:07;;;;;;;8.77;2.92;;;18.80;99.90;;;;;;5048243;28;20029;-57
2023/06/28 08:16:34;;;;;;;10.50;3.05;;;18.90;99.90;;;;;;5063350;28;20406;-56
2023/06/28 08:18:59;;;;;;;9.32;3.30;;;19.00;99.90;;;;;;5068644;28;20490;-57
2023/06/28 08:21:25;;;;;;;10.18;3.10;;;19.00;99.90;;;;;;5067700;28;20072;-57
2023/06/28 08:23:52;;;;;;;7.35;2.80;;;19.00;99.90;;;;;;5069178;28;20044;-57
2023/06/28 08:26:18;;;;;;;5.95;2.83;;;19.00;99.90;;;;;;5068054;28;20455;-57
2023/06/28 08:28:43;;;;;;;11.23;2.47;;;18.90;99.90;;;;;;5068337;28;20131;-57
2023/06/28 08:31:09;;;;;;;8.50;3.00;;;19.00;99.90;;;;;;5065941;28;20370;-57
2023/06/28 08:33:35;;;;;;;7.40;3.08;;;19.10;99.90;;;;;;5065385;28;20124;-57
2023/06/28 08:36:00;;;;;;;9.10;2.97;;;19.20;99.90;;;;;;5059251;28;20134;-56
2023/06/28 08:38:26;;;;;;;10.25;3.05;;;19.30;99.90;;;;;;5056251;28;20048;-57
2023/06/28 08:40:52;;;;;;;7.50;3.00;;;19.20;99.90;;;;;;5062123;28;20450;-57
2023/06/28 08:43:21;;;;;;;8.65;3.10;;;19.20;99.90;;;;;;5067091;28;20516;-57
2023/06/28 08:45:47;;;;;;;10.00;3.15;;;19.20;99.90;;;;;;5067871;28;20025;-57
2023/06/28 08:48:13;;;;;;;7.60;2.90;;;19.20;99.90;;;;;;5067673;28;20044;-57
2023/06/28 08:50:40;;;;;;;9.80;2.80;;;19.10;99.90;;;;;;5067734;28;20459;-58
2023/06/28 08:53:10;;;;;;;9.77;2.88;;;19.10;99.90;;;;;;5066596;28;20037;-57
2023/06/28 08:55:41;;;;;;;8.48;2.88;;;19.00;99.90;;;;;;5067841;28;20033;-57
2023/06/28 08:58:07;;;;;;;8.90;3.00;;;19.10;99.90;;;;;;5067662;28;20033;-58
2023/06/28 09:00:32;;;;;;;8.63;3.03;;;19.10;99.90;;;;;;5067808;28;20021;-57
2023/06/28 09:02:59;;;;;;;7.82;3.08;;;19.20;99.90;;;;;;5068280;28;20082;-57
2023/06/28 09:05:25;;;;;;;9.43;2.80;;;19.30;99.90;;;;;;5066662;28;20036;-57
2023/06/28 09:07:54;;;;;;;10.95;2.78;;;19.40;99.90;;;;;;5068261;28;20464;-57
2023/06/28 09:10:20;;;;;;;9.30;2.90;;;19.40;99.90;;;;;;5065994;28;20033;-57
2023/06/28 09:12:47;;;;;;;6.70;2.65;;;19.50;99.90;;;;;;5066477;28;20047;-56
2023/06/28 09:15:16;;;;;;;6.45;2.70;;;19.60;99.90;;;;;;5067195;28;20029;-57
2023/06/28 09:17:42;;;;;;;9.07;2.75;;;19.50;99.90;;;;;;5066862;28;20032;-57
2023/06/28 09:20:18;;;;;;;8.85;3.17;;;19.30;99.90;;;;;;5067149;28;20033;-57
2023/06/28 09:22:58;;;;;;;5.60;2.30;;;19.50;99.90;;;;;;5067759;28;20413;-57
2023/06/28 09:25:25;;;;;;;9.05;2.75;;;19.60;99.90;;;;;;5064695;28;20519;-57
2023/06/28 09:27:50;;;;;;;9.13;2.92;;;19.50;99.90;;;;;;5047479;28;20029;-57
2023/06/28 09:30:18;;;;;;;10.75;2.88;;;19.70;99.90;;;;;;5048427;28;20079;-57
2023/06/28 09:32:49;;;;;;;7.75;2.90;;;19.70;99.90;;;;;;5067530;28;20033;-57
2023/06/28 09:35:16;;;;;;;12.25;3.05;;;19.80;99.90;;;;;;5066679;28;20496;-57
2023/06/28 09:37:41;;;;;;;11.07;2.90;;;19.80;99.90;;;;;;5066890;28;20033;-57
2023/06/28 09:40:07;;;;;;;6.80;2.80;;;19.90;99.90;;;;;;5067229;28;20312;-57
2023/06/28 09:42:46;;;;;;;8.52;3.20;;;19.90;99.90;;;;;;5067289;28;20029;-57
2023/06/28 09:45:27;;;;;;;8.05;3.15;;;19.90;99.90;;;;;;5067455;28;20546;-57
2023/06/28 09:47:59;;;;;;;6.60;2.45;;;19.70;99.90;;;;;;5060813;28;20259;-57
2023/06/28 09:50:38;;;;;;;7.20;2.60;;;19.60;99.90;;;;;;5057924;28;20078;-59
2023/06/28 09:53:10;;;;;;;8.55;2.72;;;19.50;99.90;;;;;;5068731;28;20043;-57
2023/06/28 09:55:43;;;;;;;7.60;2.42;;;19.40;99.90;;;;;;5066893;28;20373;-57
2023/06/28 09:58:11;;;;;;;8.20;2.95;;;19.70;99.90;;;;;;5065841;28;20116;-57
2023/06/28 10:00:38;;;;;;;7.75;2.60;;;19.70;99.90;;;;;;5061621;28;20043;-57
2023/06/28 10:03:12;;;;;;;8.10;3.00;;;19.80;99.90;;;;;;5066433;28;20033;-57
2023/06/28 10:05:39;;;;;;;9.68;2.33;;;19.90;99.90;;;;;;5066928;28;20028;-57
2023/06/28 10:08:08;;;;;;;8.50;3.22;;;19.80;99.90;;;;;;5066188;28;20044;-57
2023/06/28 10:10:36;;;;;;;7.88;2.72;;;19.90;99.90;;;;;;5066211;28;20063;-56
2023/06/28 10:13:08;;;;;;;6.25;2.63;;;19.90;99.90;;;;;;5066695;28;20094;-58
2023/06/28 10:15:44;;;;;;;8.93;2.70;;;19.90;99.90;;;;;;5067060;28;20488;-57
2023/06/28 10:18:11;;;;;;;5.18;2.53;;;19.80;99.90;;;;;;5065803;28;20032;-57
2023/06/28 10:20:38;;;;;;;8.82;2.92;;;20.00;99.90;;;;;;5065780;28;20043;-56
2023/06/28 10:23:06;;;;;;;11.35;2.90;;;19.80;99.90;;;;;;5066211;28;20067;-57
2023/06/28 10:25:32;;;;;;;8.32;2.88;;;19.90;99.90;;;;;;5066664;28;20036;-56
2023/06/28 10:27:59;;;;;;;8.00;2.80;;;20.00;99.90;;;;;;5067064;28;20089;-56
2023/06/28 10:30:25;;;;;;;7.35;2.80;;;20.30;99.90;;;;;;5066134;28;20036;-57
2023/06/28 10:32:51;;;;;;;11.85;2.92;;;20.30;99.90;;;;;;5065397;28;20572;-57
2023/06/28 10:35:17;;;;;;;6.65;2.75;;;20.30;99.90;;;;;;5065386;28;20035;-56
2023/06/28 10:37:42;;;;;;;6.03;2.60;;;20.30;99.90;;;;;;5066314;28;20036;-57
2023/06/28 10:40:09;;;;;;;9.85;2.72;;;20.40;99.90;;;;;;5061784;28;20029;-57
2023/06/28 10:42:42;;;;;;;10.57;2.80;;;20.60;99.90;;;;;;5066812;28;20243;-57
2023/06/28 10:45:10;;;;;;;7.63;2.80;;;20.60;99.90;;;;;;5065769;28;20025;-57
2023/06/28 10:47:50;;;;;;;9.52;2.85;;;20.70;99.90;;;;;;5066071;28;20033;-57
2023/06/28 10:50:23;;;;;;;9.25;2.75;;;20.80;99.90;;;;;;5064068;28;20534;-57
2023/06/28 10:52:52;;;;;;;7.78;3.20;;;20.70;99.90;;;;;;5066777;28;20039;-57
2023/06/28 10:55:28;;;;;;;8.88;2.83;;;20.90;99.90;;;;;;5064467;28;20025;-57
2023/06/28 10:58:08;;;;;;;14.77;3.28;;;20.90;99.90;;;;;;5046045;28;20485;-57
2023/06/28 11:00:36;;;;;;;8.13;3.17;;;21.00;99.90;;;;;;5049424;28;20037;-57
2023/06/28 11:03:04;;;;;;;6.85;2.45;;;21.00;99.90;;;;;;5065847;28;20033;-57
2023/06/28 11:05:38;;;;;;;10.95;3.10;;;21.00;99.90;;;;;;5054377;28;20089;-57
2023/06/28 11:08:10;;;;;;;6.95;2.50;;;21.00;99.90;;;;;;5046302;28;20183;-57
2023/06/28 11:10:38;;;;;;;11.88;2.83;;;21.20;99.90;;;;;;5065675;28;20078;-57
2023/06/28 11:13:07;;;;;;;9.18;3.30;;;21.20;99.90;;;;;;5065390;28;20036;-57
2023/06/28 11:15:33;;;;;;;13.57;3.30;;;21.20;99.90;;;;;;5064655;28;20039;-57
2023/06/28 11:18:10;;;;;;;9.40;3.28;;;21.00;99.90;;;;;;5058018;28;20032;-57
2023/06/28 11:20:56;;;;;;;7.00;2.88;;;21.10;99.90;;;;;;5065662;28;20044;-57
2023/06/28 11:23:43;;;;;;;9.52;3.00;;;21.10;99.90;;;;;;5065361;28;20457;-57
2023/06/28 11:26:18;;;;;;;8.75;2.92;;;21.30;99.90;;;;;;5063289;28;20435;-58
2023/06/28 11:28:48;;;;;;;8.88;3.10;;;21.20;99.90;;;;;;5045737;28;20047;-57
2023/06/28 11:31:15;;;;;;;8.93;2.65;;;21.30;99.90;;;;;;5054860;28;20392;-57
2023/06/28 11:33:42;;;;;;;9.00;3.42;;;21.30;99.90;;;;;;5065775;28;20044;-56
2023/06/28 11:36:09;;;;;;;7.57;3.05;;;21.50;99.90;;;;;;5065304;28;20040;-57
2023/06/28 11:38:36;;;;;;;9.57;3.30;;;21.60;99.90;;;;;;5054990;28;20474;-57
2023/06/28 11:41:02;;;;;;;10.90;3.88;;;21.70;99.90;;;;;;5065385;28;20055;-57
2023/06/28 11:43:28;;;;;;;9.10;2.95;;;21.50;99.90;;;;;;5065571;28;20033;-57
2023/06/28 11:45:54;;;;;;;9.18;3.30;;;21.70;99.90;;;;;;5065044;28;20039;-57
2023/06/28 11:48:23;;;;;;;9.57;3.08;;;22.00;99.90;;;;;;5063442;28;20559;-57
2023/06/28 11:51:00;;;;;;;9.25;3.15;;;21.90;99.90;;;;;;5059724;28;20424;-63
2023/06/28 11:53:27;;;;;;;10.30;3.70;;;21.90;99.90;;;;;;5065218;28;20052;-64
2023/06/28 11:55:53;;;;;;;11.93;3.67;;;22.20;99.90;;;;;;5063484;28;20032;-63
2023/06/28 11:58:39;;;;;;;9.20;3.67;;;22.20;99.90;;;;;;5064496;28;20039;-62
2023/06/28 12:01:05;;;;;;;9.80;3.85;;;22.40;99.90;;;;;;5064318;28;20029;-62
2023/06/28 12:03:35;;;;;;;10.73;3.60;;;22.20;99.90;;;;;;5065657;28;20537;-64
2023/06/28 12:06:03;;;;;;;9.55;3.40;;;22.40;99.90;;;;;;5065502;28;20036;-64
2023/06/28 12:08:36;;;;;;;11.02;3.40;;;22.60;99.90;;;;;;5065014;28;20060;-63
2023/06/28 12:11:14;;;;;;;11.43;3.22;;;22.70;99.90;;;;;;5064353;28;20036;-60
2023/06/28 12:13:40;;;;;;;15.25;3.72;;;22.70;99.90;;;;;;5065742;28;20028;-63
2023/06/28 12:16:21;;;;;;;10.50;3.42;;;22.70;99.90;;;;;;5063257;28;20065;-62
2023/06/28 12:19:01;;;;;;;13.68;3.38;;;22.80;99.90;;;;;;5063430;28;20091;-62
2023/06/28 12:21:28;;;;;;;10.98;3.47;;;22.90;99.90;;;;;;5063807;28;21120;-63
2023/06/28 12:24:12;;;;;;;12.73;3.30;;;22.80;99.90;;;;;;5047523;28;20056;-62
2023/06/28 12:26:37;;;;;;;10.27;2.92;;;22.80;99.90;;;;;;5067660;28;20568;-63
2023/06/28 12:29:06;;;;;;;7.93;3.08;;;22.80;99.90;;;;;;5070389;28;20124;-62
2023/06/28 12:31:47;;;;;;;11.70;3.28;;;22.70;99.90;;;;;;5069031;28;20048;-58
2023/06/28 12:34:14;;;;;;;10.88;2.97;;;22.70;99.90;;;;;;5067601;28;20067;-57
2023/06/28 12:36:40;;;;;;;10.27;2.75;;;22.70;99.90;;;;;;5068728;28;20094;-57
2023/06/28 12:39:08;;;;;;;9.90;3.20;;;22.70;99.90;;;;;;5068243;28;20124;-57
2023/06/28 12:41:34;;;;;;;8.65;3.22;;;22.90;99.90;;;;;;5067329;28;20040;-57
2023/06/28 12:44:06;;;;;;;16.38;3.95;;;22.70;99.90;;;;;;5067741;28;20028;-57
2023/06/28 12:46:32;;;;;;;11.80;3.20;;;22.70;99.90;;;;;;5070341;28;20567;-57